createdAt,value
2019-05-13T00:00:45.822Z,19.37
2019-05-13T00:01:54.000Z,19.49
2019-05-13T00:03:03.369Z,19.53
2019-05-13T00:04:09.351Z,19.54
2019-05-13T00:05:16.410Z,19.55
2019-05-13T00:06:23.805Z,19.57
2019-05-13T00:07:31.027Z,19.53
2019-05-13T00:08:39.236Z,19.60
2019-05-13T00:09:46.457Z,19.61
2019-05-13T00:10:54.162Z,19.61
2019-05-13T00:12:01.244Z,19.52
2019-05-13T00:13:07.714Z,19.47
2019-05-13T00:14:14.715Z,19.27
2019-05-13T00:15:21.235Z,19.26
2019-05-13T00:16:28.435Z,19.21
2019-05-13T00:17:35.165Z,19.21
2019-05-13T00:18:44.409Z,19.25
2019-05-13T00:19:53.214Z,19.25
2019-05-13T00:20:59.935Z,19.29
2019-05-13T00:22:06.366Z,19.37
2019-05-13T00:23:14.524Z,19.40
2019-05-13T00:24:24.133Z,19.45
2019-05-13T00:25:30.749Z,19.46
2019-05-13T00:26:37.420Z,19.41
2019-05-13T00:27:44.688Z,19.45
2019-05-13T00:28:53.406Z,19.52
2019-05-13T00:30:00.317Z,19.54
2019-05-13T00:31:07.065Z,19.50
2019-05-13T00:32:14.301Z,19.50
2019-05-13T00:33:20.835Z,19.54
2019-05-13T00:34:28.013Z,19.46
2019-05-13T00:35:34.392Z,19.50
2019-05-13T00:36:44.354Z,19.53
2019-05-13T00:37:49.770Z,19.57
2019-05-13T00:38:56.926Z,19.55
2019-05-13T00:40:04.122Z,19.56
2019-05-13T00:41:11.038Z,19.50
2019-05-13T00:42:17.681Z,19.43
2019-05-13T00:43:24.872Z,19.46
2019-05-13T00:44:33.578Z,19.45
2019-05-13T00:45:39.989Z,19.46
2019-05-13T00:46:46.349Z,19.45
2019-05-13T00:47:53.759Z,19.39
2019-05-13T00:49:00.216Z,19.35
2019-05-13T00:50:07.679Z,19.31
2019-05-13T00:51:14.284Z,19.29
2019-05-13T00:52:23.465Z,19.27
2019-05-13T00:53:30.398Z,19.35
2019-05-13T00:54:37.388Z,19.39
2019-05-13T00:55:44.472Z,19.40
2019-05-13T00:56:51.568Z,19.44
2019-05-13T00:57:58.016Z,19.53
2019-05-13T00:59:05.010Z,19.58
2019-05-13T01:00:13.829Z,19.56
2019-05-13T01:01:20.206Z,19.57
2019-05-13T01:02:26.578Z,19.45
2019-05-13T01:03:35.245Z,19.46
2019-05-13T01:04:41.606Z,19.36
2019-05-13T01:05:49.614Z,19.23
2019-05-13T01:06:56.251Z,19.24
2019-05-13T01:08:04.281Z,19.26
2019-05-13T01:09:10.970Z,19.28
2019-05-13T01:10:18.040Z,19.37
2019-05-13T01:11:24.504Z,19.40
2019-05-13T01:12:31.424Z,19.47
2019-05-13T01:13:38.176Z,19.47
2019-05-13T01:14:45.276Z,19.49
2019-05-13T01:15:51.656Z,19.51
2019-05-13T01:16:58.884Z,19.54
2019-05-13T01:18:05.526Z,19.55
2019-05-13T01:19:14.327Z,19.59
2019-05-13T01:20:20.728Z,19.54
2019-05-13T01:21:27.900Z,19.70
2019-05-13T01:22:34.563Z,19.76
2019-05-13T01:23:43.886Z,19.77
2019-05-13T01:24:49.859Z,19.76
2019-05-13T01:25:56.926Z,19.77
2019-05-13T01:27:04.072Z,19.77
2019-05-13T01:28:13.464Z,19.80
2019-05-13T01:29:19.655Z,19.83
2019-05-13T01:30:27.051Z,19.78
2019-05-13T01:31:34.405Z,19.74
2019-05-13T01:32:41.679Z,19.72
2019-05-13T01:33:48.315Z,19.74
2019-05-13T01:34:55.277Z,19.71
2019-05-13T01:36:04.977Z,19.66
2019-05-13T01:37:10.269Z,19.61
2019-05-13T01:38:16.606Z,19.49
2019-05-13T01:39:24.298Z,19.48
2019-05-13T01:40:30.883Z,19.35
2019-05-13T01:41:37.887Z,19.35
2019-05-13T01:42:44.656Z,19.26
2019-05-13T01:43:54.204Z,19.23
2019-05-13T01:44:59.800Z,19.31
2019-05-13T01:46:07.166Z,19.37
2019-05-13T01:47:13.748Z,19.37
2019-05-13T01:48:20.802Z,19.28
2019-05-13T01:49:27.181Z,19.26
2019-05-13T01:50:34.225Z,19.26
2019-05-13T01:51:40.672Z,19.31
2019-05-13T01:52:48.493Z,19.32
2019-05-13T01:53:54.988Z,19.25
2019-05-13T01:55:04.106Z,19.20
2019-05-13T01:56:11.561Z,19.17
2019-05-13T01:57:18.493Z,19.07
2019-05-13T01:58:24.895Z,19.12
2019-05-13T01:59:33.977Z,19.13
2019-05-13T02:00:44.024Z,19.15
2019-05-13T02:01:50.377Z,19.20
2019-05-13T02:02:57.104Z,19.20
2019-05-13T02:04:04.276Z,19.15
2019-05-13T02:05:10.923Z,19.04
2019-05-13T02:06:17.811Z,19.08
2019-05-13T02:07:24.457Z,19.17
2019-05-13T02:08:33.656Z,19.14
2019-05-13T02:09:40.363Z,19.10
2019-05-13T02:10:53.857Z,19.18
2019-05-13T02:11:59.197Z,19.15
2019-05-13T02:13:06.128Z,19.14
2019-05-13T02:14:13.251Z,19.10
2019-05-13T02:15:20.480Z,19.15
2019-05-13T02:16:27.168Z,19.13
2019-05-13T02:17:34.273Z,19.19
2019-05-13T02:18:40.624Z,19.12
2019-05-13T02:19:47.521Z,19.06
2019-05-13T02:20:56.037Z,19.14
2019-05-13T02:22:04.014Z,19.09
2019-05-13T02:23:10.988Z,19.07
2019-05-13T02:24:18.032Z,19.09
2019-05-13T02:25:24.987Z,19.05
2019-05-13T02:26:31.891Z,19.03
2019-05-13T02:27:38.269Z,19.19
2019-05-13T02:28:45.243Z,19.21
2019-05-13T02:29:53.920Z,19.33
2019-05-13T02:31:00.693Z,19.41
2019-05-13T02:32:07.136Z,19.44
2019-05-13T02:33:14.066Z,19.45
2019-05-13T02:34:23.223Z,19.37
2019-05-13T02:35:32.259Z,19.28
2019-05-13T02:36:37.298Z,19.13
2019-05-13T02:37:44.255Z,19.16
2019-05-13T02:38:53.190Z,19.14
2019-05-13T02:40:03.205Z,19.28
2019-05-13T02:41:08.955Z,19.38
2019-05-13T02:42:15.954Z,19.44
2019-05-13T02:43:23.676Z,19.48
2019-05-13T02:44:33.317Z,19.49
2019-05-13T02:45:42.676Z,19.49
2019-05-13T02:46:48.373Z,19.47
2019-05-13T02:47:54.874Z,19.43
2019-05-13T02:49:03.279Z,19.37
2019-05-13T02:50:12.878Z,19.38
2019-05-13T02:51:23.067Z,19.41
2019-05-13T02:52:28.306Z,19.36
2019-05-13T02:53:35.597Z,19.26
2019-05-13T02:54:42.679Z,19.21
2019-05-13T02:55:52.440Z,19.18
2019-05-13T02:56:57.931Z,19.04
2019-05-13T02:58:04.922Z,18.99
2019-05-13T02:59:13.254Z,18.97
2019-05-13T03:00:23.432Z,18.91
2019-05-13T03:01:28.867Z,18.89
2019-05-13T03:02:35.839Z,18.93
2019-05-13T03:03:44.385Z,18.98
2019-05-13T03:04:52.381Z,19.06
2019-05-13T03:05:59.023Z,19.15
2019-05-13T03:07:05.980Z,19.22
2019-05-13T03:08:12.944Z,19.29
2019-05-13T03:09:22.964Z,19.33
2019-05-13T03:10:28.641Z,19.38
2019-05-13T03:11:35.843Z,19.34
2019-05-13T03:12:42.893Z,19.23
2019-05-13T03:13:52.905Z,19.20
2019-05-13T03:14:58.251Z,19.25
2019-05-13T03:16:18.571Z,19.16
2019-05-13T03:17:29.060Z,19.11
2019-05-13T03:18:35.973Z,19.21
2019-05-13T03:19:43.529Z,19.29
2019-05-13T03:20:53.014Z,19.30
2019-05-13T03:21:59.039Z,19.31
2019-05-13T03:23:05.797Z,19.33
2019-05-13T03:24:13.507Z,19.31
2019-05-13T03:25:22.681Z,19.38
2019-05-13T03:26:32.024Z,19.41
2019-05-13T03:27:36.806Z,19.31
2019-05-13T03:28:44.211Z,19.20
2019-05-13T03:29:53.392Z,19.14
2019-05-13T03:31:05.438Z,19.14
2019-05-13T03:32:08.034Z,19.11
2019-05-13T03:33:19.224Z,19.07
2019-05-13T03:34:26.473Z,18.94
2019-05-13T03:35:36.593Z,19.04
2019-05-13T03:36:45.836Z,19.11
2019-05-13T03:37:52.619Z,19.19
2019-05-13T03:39:05.796Z,19.18
2019-05-13T03:40:07.433Z,19.14
2019-05-13T03:41:17.859Z,19.06
2019-05-13T03:42:26.979Z,18.96
2019-05-13T03:43:33.647Z,18.95
2019-05-13T03:44:45.143Z,18.88
2019-05-13T03:45:54.723Z,18.96
2019-05-13T03:47:04.530Z,19.01
2019-05-13T03:48:12.517Z,19.04
2019-05-13T03:49:23.436Z,19.10
2019-05-13T03:50:34.163Z,19.10
2019-05-13T03:51:42.672Z,19.07
2019-05-13T03:52:47.730Z,19.05
2019-05-13T03:53:55.100Z,19.10
2019-05-13T03:55:03.115Z,19.12
2019-05-13T03:56:12.889Z,19.00
2019-05-13T03:57:18.680Z,18.93
2019-05-13T03:58:26.276Z,18.90
2019-05-13T03:59:33.582Z,18.92
2019-05-13T04:00:42.669Z,18.93
2019-05-13T04:01:52.331Z,18.94
2019-05-13T04:02:58.128Z,18.95
2019-05-13T04:04:04.646Z,19.00
2019-05-13T04:05:13.317Z,19.03
2019-05-13T04:06:22.341Z,19.12
2019-05-13T04:07:32.416Z,19.06
2019-05-13T04:08:37.282Z,19.07
2019-05-13T04:09:44.316Z,19.09
2019-05-13T04:10:52.520Z,19.08
2019-05-13T04:12:02.835Z,19.08
2019-05-13T04:13:08.185Z,19.14
2019-05-13T04:14:15.494Z,19.16
2019-05-13T04:15:23.609Z,19.16
2019-05-13T04:16:32.313Z,19.16
2019-05-13T04:17:38.954Z,19.16
2019-05-13T04:18:46.872Z,19.21
2019-05-13T04:19:53.272Z,19.24
2019-05-13T04:21:02.774Z,19.19
2019-05-13T04:22:08.876Z,19.24
2019-05-13T04:23:16.435Z,19.25
2019-05-13T04:24:23.321Z,19.31
2019-05-13T04:25:32.212Z,19.29
2019-05-13T04:26:38.834Z,19.37
2019-05-13T04:27:45.906Z,19.40
2019-05-13T04:28:52.831Z,19.46
2019-05-13T04:30:03.417Z,19.35
2019-05-13T04:31:09.078Z,19.42
2019-05-13T04:32:17.556Z,19.55
2019-05-13T04:33:24.009Z,19.58
2019-05-13T04:34:33.816Z,19.48
2019-05-13T04:35:42.380Z,19.47
2019-05-13T04:36:48.211Z,19.33
2019-05-13T04:37:54.731Z,19.31
2019-05-13T04:39:03.197Z,19.27
2019-05-13T04:40:12.672Z,19.18
2019-05-13T04:41:22.575Z,19.14
2019-05-13T04:42:27.693Z,18.98
2019-05-13T04:43:35.818Z,18.96
2019-05-13T04:44:43.001Z,18.90
2019-05-13T04:45:52.440Z,18.77
2019-05-13T04:46:59.121Z,18.80
2019-05-13T04:48:06.158Z,18.76
2019-05-13T04:49:12.714Z,18.79
2019-05-13T04:50:22.393Z,18.76
2019-05-13T04:51:28.017Z,18.80
2019-05-13T04:52:35.056Z,18.85
2019-05-13T04:53:42.586Z,18.93
2019-05-13T04:54:52.765Z,18.94
2019-05-13T04:55:58.116Z,18.99
2019-05-13T04:57:05.281Z,19.06
2019-05-13T04:58:13.029Z,19.08
2019-05-13T04:59:22.746Z,19.12
2019-05-13T05:00:49.808Z,19.19
2019-05-13T05:02:15.610Z,19.21
2019-05-13T05:03:53.243Z,19.22
2019-05-13T05:05:21.629Z,19.29
2019-05-13T05:06:32.843Z,19.35
2019-05-13T05:08:12.034Z,19.40
2019-05-13T05:09:42.901Z,19.43
2019-05-13T05:10:57.005Z,19.43
2019-05-13T05:12:36.463Z,19.36
2019-05-13T05:14:19.221Z,19.26
2019-05-13T05:15:54.025Z,19.34
2019-05-13T05:17:06.557Z,19.31
2019-05-13T05:18:37.477Z,19.28
2019-05-13T05:20:07.624Z,19.32
2019-05-13T05:21:26.864Z,19.27
2019-05-13T05:22:57.471Z,19.26
2019-05-13T05:24:28.202Z,19.27
2019-05-13T05:25:37.776Z,19.21
2019-05-13T05:27:02.242Z,19.15
2019-05-13T05:28:41.825Z,19.21
2019-05-13T05:29:57.242Z,19.21
2019-05-13T05:31:32.661Z,19.13
2019-05-13T05:33:11.382Z,19.07
2019-05-13T05:34:21.902Z,19.02
2019-05-13T05:35:52.876Z,18.95
2019-05-13T05:37:18.493Z,18.97
2019-05-13T05:38:57.356Z,19.00
2019-05-13T05:40:05.525Z,19.01
2019-05-13T05:41:15.453Z,19.10
2019-05-13T05:42:24.945Z,19.14
2019-05-13T05:43:32.286Z,19.15
2019-05-13T05:44:42.179Z,19.18
2019-05-13T05:45:51.162Z,19.17
2019-05-13T05:47:02.620Z,19.17
2019-05-13T05:48:09.158Z,19.20
2019-05-13T05:49:17.579Z,19.16
2019-05-13T05:50:24.928Z,19.13
2019-05-13T05:51:33.281Z,19.06
2019-05-13T05:52:42.101Z,18.95
2019-05-13T05:53:51.869Z,18.92
2019-05-13T05:55:02.388Z,18.82
2019-05-13T05:56:12.369Z,18.77
2019-05-13T05:57:22.244Z,18.73
2019-05-13T05:58:31.544Z,18.65
2019-05-13T05:59:42.639Z,18.60
2019-05-13T06:00:52.043Z,18.68
2019-05-13T06:02:01.923Z,18.72
2019-05-13T06:03:08.772Z,18.75
2019-05-13T06:04:15.592Z,18.87
2019-05-13T06:05:24.565Z,18.95
2019-05-13T06:06:32.895Z,18.89
2019-05-13T06:07:42.139Z,18.95
2019-05-13T06:08:51.494Z,18.95
2019-05-13T06:09:57.809Z,18.99
2019-05-13T06:11:04.950Z,19.00
2019-05-13T06:12:12.787Z,19.12
2019-05-13T06:13:21.465Z,19.10
2019-05-13T06:14:27.956Z,19.05
2019-05-13T06:15:35.428Z,19.04
2019-05-13T06:16:42.674Z,18.96
2019-05-13T06:17:51.694Z,18.92
2019-05-13T06:18:58.004Z,18.88
2019-05-13T06:20:08.970Z,18.72
2019-05-13T06:21:15.831Z,18.71
2019-05-13T06:22:22.705Z,18.67
2019-05-13T06:23:31.333Z,18.72
2019-05-13T06:24:42.136Z,18.64
2019-05-13T06:25:52.404Z,18.60
2019-05-13T06:26:58.608Z,18.53
2019-05-13T06:28:05.536Z,18.56
2019-05-13T06:29:12.455Z,18.52
2019-05-13T06:30:21.540Z,18.51
2019-05-13T06:31:27.788Z,18.49
2019-05-13T06:32:34.467Z,18.49
2019-05-13T06:33:42.179Z,18.49
2019-05-13T06:34:52.473Z,18.58
2019-05-13T06:36:01.187Z,18.53
2019-05-13T06:37:07.993Z,18.45
2019-05-13T06:38:14.841Z,18.43
2019-05-13T06:39:22.201Z,18.35
2019-05-13T06:40:29.121Z,18.24
2019-05-13T06:41:37.302Z,18.25
2019-05-13T06:42:44.144Z,18.24
2019-05-13T06:43:52.421Z,18.32
2019-05-13T06:45:01.734Z,18.23
2019-05-13T06:46:08.221Z,18.27
2019-05-13T06:47:16.547Z,18.18
2019-05-13T06:48:25.737Z,18.15
2019-05-13T06:49:32.777Z,18.15
2019-05-13T06:50:41.637Z,18.13
2019-05-13T06:51:52.723Z,18.15
2019-05-13T06:53:01.536Z,18.20
2019-05-13T06:54:11.303Z,18.33
2019-05-13T06:55:21.272Z,18.39
2019-05-13T06:56:28.313Z,18.39
2019-05-13T06:57:34.963Z,18.38
2019-05-13T06:58:41.907Z,18.36
2019-05-13T06:59:52.381Z,18.32
2019-05-13T07:01:03.112Z,18.38
2019-05-13T07:02:07.957Z,18.34
2019-05-13T07:03:14.686Z,18.52
2019-05-13T07:04:22.023Z,18.57
2019-05-13T07:05:28.859Z,18.65
2019-05-13T07:06:35.444Z,18.71
2019-05-13T07:07:42.546Z,18.68
2019-05-13T07:08:52.234Z,18.69
2019-05-13T07:10:02.248Z,18.57
2019-05-13T07:11:17.604Z,18.54
2019-05-13T07:12:16.039Z,18.54
2019-05-13T07:13:23.626Z,18.61
2019-05-13T07:14:32.610Z,18.59
2019-05-13T07:15:41.647Z,18.58
2019-05-13T07:16:48.721Z,18.62
2019-05-13T07:17:55.372Z,18.65
2019-05-13T07:19:02.727Z,18.68
2019-05-13T07:20:11.673Z,18.78
2019-05-13T07:21:18.748Z,18.80
2019-05-13T07:22:26.872Z,18.74
2019-05-13T07:23:37.068Z,18.76
2019-05-13T07:24:45.550Z,18.67
2019-05-13T07:25:52.796Z,18.60
2019-05-13T07:27:01.847Z,18.63
2019-05-13T07:28:09.027Z,18.61
2019-05-13T07:29:15.930Z,18.62
2019-05-13T07:30:34.729Z,18.54
2019-05-13T07:31:42.238Z,18.55
2019-05-13T07:32:49.127Z,18.53
2019-05-13T07:33:55.825Z,18.47
2019-05-13T07:35:03.997Z,18.44
2019-05-13T07:36:13.350Z,18.38
2019-05-13T07:37:22.043Z,18.43
2019-05-13T07:38:32.350Z,18.39
2019-05-13T07:39:47.561Z,18.46
2019-05-13T07:40:55.047Z,18.51
2019-05-13T07:41:57.495Z,18.43
2019-05-13T07:43:01.705Z,18.36
2019-05-13T07:44:03.850Z,18.27
2019-05-13T07:45:06.137Z,18.29
2019-05-13T07:46:08.262Z,18.34
2019-05-13T07:47:11.689Z,18.38
2019-05-13T07:48:21.065Z,18.29
2019-05-13T07:49:17.803Z,18.39
2019-05-13T07:50:21.904Z,18.44
2019-05-13T07:51:23.688Z,18.45
2019-05-13T07:52:25.724Z,18.27
2019-05-13T07:53:28.979Z,18.35
2019-05-13T07:54:32.912Z,18.40
2019-05-13T07:55:34.965Z,18.50
2019-05-13T07:56:37.065Z,18.49
2019-05-13T07:57:39.014Z,18.52
2019-05-13T07:58:41.852Z,18.55
2019-05-13T07:59:44.059Z,18.53
2019-05-13T08:00:46.197Z,18.49
2019-05-13T08:01:48.355Z,18.49
2019-05-13T08:02:52.292Z,18.51
2019-05-13T08:03:54.176Z,18.43
2019-05-13T08:04:56.033Z,18.42
2019-05-13T08:05:58.321Z,18.39
2019-05-13T08:07:01.994Z,18.44
2019-05-13T08:08:05.032Z,18.55
2019-05-13T08:09:07.564Z,18.60
2019-05-13T08:10:11.614Z,18.57
2019-05-13T08:11:14.053Z,18.56
2019-05-13T08:12:17.753Z,18.52
2019-05-13T08:13:22.284Z,18.56
2019-05-13T08:14:23.999Z,18.52
2019-05-13T08:15:25.894Z,18.48
2019-05-13T08:16:32.129Z,18.51
2019-05-13T08:17:34.132Z,18.47
2019-05-13T08:18:36.023Z,18.45
2019-05-13T08:19:38.022Z,18.41
2019-05-13T08:20:42.035Z,18.42
2019-05-13T08:21:44.274Z,18.30
2019-05-13T08:22:46.244Z,18.28
2019-05-13T08:23:48.756Z,18.15
2019-05-13T08:24:54.056Z,18.14
2019-05-13T08:25:54.932Z,18.20
2019-05-13T08:26:57.021Z,18.18
2019-05-13T08:27:59.018Z,18.15
2019-05-13T08:29:05.387Z,18.16
2019-05-13T08:30:08.504Z,18.20
2019-05-13T08:31:12.042Z,18.22
2019-05-13T08:32:14.101Z,18.16
2019-05-13T08:33:16.162Z,18.21
2019-05-13T08:34:18.236Z,18.22
2019-05-13T08:35:22.437Z,18.20
2019-05-13T08:36:24.568Z,18.18
2019-05-13T08:37:26.832Z,18.20
2019-05-13T08:38:32.009Z,18.16
2019-05-13T08:39:38.445Z,18.16
2019-05-13T08:40:38.023Z,18.17
2019-05-13T08:41:42.355Z,18.19
2019-05-13T08:42:45.052Z,18.20
2019-05-13T08:43:47.145Z,18.28
2019-05-13T08:44:52.019Z,18.22
2019-05-13T08:45:55.638Z,18.23
2019-05-13T08:46:58.927Z,18.16
2019-05-13T08:48:02.190Z,18.13
2019-05-13T08:49:06.351Z,18.11
2019-05-13T08:50:11.925Z,18.07
2019-05-13T08:51:13.825Z,18.01
2019-05-13T08:52:17.374Z,17.95
2019-05-13T08:53:21.034Z,17.97
2019-05-13T08:54:22.818Z,17.96
2019-05-13T08:55:24.799Z,17.91
2019-05-13T08:56:26.746Z,18.02
2019-05-13T08:57:28.781Z,18.11
2019-05-13T08:58:32.022Z,18.14
2019-05-13T08:59:34.238Z,18.15
2019-05-13T09:00:52.899Z,18.17
2019-05-13T09:01:55.572Z,18.12
2019-05-13T09:02:57.623Z,18.10
2019-05-13T09:04:02.339Z,18.04
2019-05-13T09:05:06.844Z,18.07
2019-05-13T09:06:11.499Z,18.05
2019-05-13T09:07:13.434Z,18.14
2019-05-13T09:08:16.409Z,18.16
2019-05-13T09:09:18.569Z,18.16
2019-05-13T09:10:21.441Z,18.22
2019-05-13T09:11:26.931Z,18.31
2019-05-13T09:12:35.175Z,18.34
2019-05-13T09:13:34.506Z,18.30
2019-05-13T09:14:36.796Z,18.28
2019-05-13T09:15:42.248Z,18.19
2019-05-13T09:16:44.494Z,18.13
2019-05-13T09:17:46.629Z,18.09
2019-05-13T09:18:51.795Z,18.11
2019-05-13T09:19:54.634Z,18.08
2019-05-13T09:20:56.387Z,18.15
2019-05-13T09:22:02.813Z,18.17
2019-05-13T09:23:03.745Z,18.26
2019-05-13T09:24:20.664Z,18.27
2019-05-13T09:25:12.788Z,18.31
2019-05-13T09:26:14.392Z,18.38
2019-05-13T09:27:16.464Z,18.38
2019-05-13T09:28:18.802Z,18.37
2019-05-13T09:29:22.528Z,18.24
2019-05-13T09:30:27.257Z,18.18
2019-05-13T09:31:28.821Z,18.19
2019-05-13T09:32:31.779Z,18.12
2019-05-13T09:33:34.080Z,18.04
2019-05-13T09:34:36.075Z,18.12
2019-05-13T09:35:38.125Z,18.11
2019-05-13T09:36:41.742Z,18.16
2019-05-13T09:37:44.125Z,18.19
2019-05-13T09:38:46.298Z,18.24
2019-05-13T09:39:51.646Z,18.25
2019-05-13T09:40:54.119Z,18.33
2019-05-13T09:41:56.102Z,18.34
2019-05-13T09:42:58.318Z,18.39
2019-05-13T09:44:02.213Z,18.45
2019-05-13T09:45:05.711Z,18.36
2019-05-13T09:46:08.399Z,18.54
2019-05-13T09:47:12.415Z,18.68
2019-05-13T09:48:14.607Z,18.74
2019-05-13T09:49:20.070Z,18.70
2019-05-13T09:50:29.299Z,18.68
2019-05-13T09:51:26.051Z,18.51
2019-05-13T09:52:28.216Z,18.47
2019-05-13T09:53:32.517Z,18.50
2019-05-13T09:54:35.092Z,18.50
2019-05-13T09:55:37.047Z,18.62
2019-05-13T09:56:42.426Z,18.62
2019-05-13T09:57:44.395Z,18.65
2019-05-13T09:58:46.336Z,18.64
2019-05-13T09:59:48.298Z,18.61
2019-05-13T10:00:52.621Z,18.57
2019-05-13T10:01:54.368Z,18.60
2019-05-13T10:02:56.418Z,18.54
2019-05-13T10:03:58.582Z,18.54
2019-05-13T10:05:02.276Z,18.46
2019-05-13T10:06:04.636Z,18.36
2019-05-13T10:07:08.626Z,18.30
2019-05-13T10:08:12.513Z,18.33
2019-05-13T10:09:14.920Z,18.35
2019-05-13T10:10:17.040Z,18.40
2019-05-13T10:11:21.527Z,18.35
2019-05-13T10:12:24.544Z,18.38
2019-05-13T10:13:27.112Z,18.43
2019-05-13T10:14:29.356Z,18.44
2019-05-13T10:15:32.909Z,18.49
2019-05-13T10:16:37.280Z,18.50
2019-05-13T10:17:42.782Z,18.45
2019-05-13T10:18:43.979Z,18.53
2019-05-13T10:19:45.970Z,18.61
2019-05-13T10:20:57.877Z,18.64
2019-05-13T10:21:59.423Z,18.66
2019-05-13T10:23:01.836Z,18.74
2019-05-13T10:24:04.646Z,18.81
2019-05-13T10:25:12.767Z,18.81
2019-05-13T10:26:15.301Z,18.77
2019-05-13T10:27:18.985Z,18.82
2019-05-13T10:28:22.466Z,18.80
2019-05-13T10:29:24.611Z,18.77
2019-05-13T10:30:26.382Z,18.76
2019-05-13T10:31:28.543Z,18.73
2019-05-13T10:32:32.445Z,18.65
2019-05-13T10:33:34.788Z,18.69
2019-05-13T10:34:36.898Z,18.67
2019-05-13T10:35:42.926Z,18.59
2019-05-13T10:36:45.163Z,18.52
2019-05-13T10:37:49.690Z,18.48
2019-05-13T10:38:53.421Z,18.53
2019-05-13T10:39:55.334Z,18.53
2019-05-13T10:40:57.683Z,18.49
2019-05-13T10:42:03.125Z,18.50
2019-05-13T10:43:04.192Z,18.50
2019-05-13T10:44:06.030Z,18.53
2019-05-13T10:45:08.249Z,18.59
2019-05-13T10:46:12.717Z,18.62
2019-05-13T10:47:14.141Z,18.65
2019-05-13T10:48:16.149Z,18.69
2019-05-13T10:49:18.455Z,18.59
2019-05-13T10:50:27.426Z,18.63
2019-05-13T10:51:27.299Z,18.70
2019-05-13T10:52:31.756Z,18.68
2019-05-13T10:53:33.384Z,18.72
2019-05-13T10:54:35.144Z,18.83
2019-05-13T10:55:37.217Z,18.88
2019-05-13T10:56:39.488Z,18.92
2019-05-13T10:57:42.402Z,18.86
2019-05-13T10:58:44.699Z,18.82
2019-05-13T10:59:46.862Z,18.89
2019-05-13T11:00:52.312Z,18.86
2019-05-13T11:01:54.551Z,18.90
2019-05-13T11:02:56.476Z,18.97
2019-05-13T11:03:58.583Z,18.94
2019-05-13T11:05:02.981Z,18.89
2019-05-13T11:06:04.793Z,18.87
2019-05-13T11:07:07.189Z,18.92
2019-05-13T11:08:09.410Z,18.95
2019-05-13T11:09:12.993Z,19.03
2019-05-13T11:10:22.246Z,19.08
2019-05-13T11:11:24.753Z,19.12
2019-05-13T11:12:28.633Z,19.19
2019-05-13T11:13:50.121Z,19.12
2019-05-13T11:14:34.070Z,19.17
2019-05-13T11:15:41.142Z,19.09
2019-05-13T11:16:42.700Z,19.10
2019-05-13T11:17:46.534Z,19.03
2019-05-13T11:18:51.698Z,18.98
2019-05-13T11:19:53.565Z,18.91
2019-05-13T11:20:55.502Z,18.91
2019-05-13T11:21:57.581Z,18.88
2019-05-13T11:22:59.504Z,18.91
2019-05-13T11:24:03.425Z,18.97
2019-05-13T11:25:05.561Z,19.10
2019-05-13T11:26:07.642Z,19.08
2019-05-13T11:27:11.938Z,19.20
2019-05-13T11:28:13.985Z,19.24
2019-05-13T11:29:19.205Z,19.26
2019-05-13T11:30:23.621Z,19.20
2019-05-13T11:31:25.380Z,19.18
2019-05-13T11:32:27.083Z,19.24
2019-05-13T11:33:31.583Z,19.21
2019-05-13T11:34:33.477Z,19.27
2019-05-13T11:35:35.489Z,19.21
2019-05-13T11:36:37.446Z,19.18
2019-05-13T11:37:43.494Z,19.09
2019-05-13T11:38:45.051Z,19.20
2019-05-13T11:39:47.564Z,19.19
2019-05-13T11:40:52.372Z,19.13
2019-05-13T11:41:53.717Z,19.30
2019-05-13T11:42:55.723Z,19.33
2019-05-13T11:44:11.891Z,19.38
2019-05-13T11:45:02.011Z,19.38
2019-05-13T11:46:06.835Z,19.37
2019-05-13T11:47:09.286Z,19.33
2019-05-13T11:48:13.135Z,19.25
2019-05-13T11:49:15.606Z,19.25
2019-05-13T11:50:18.364Z,19.16
2019-05-13T11:51:24.126Z,19.12
2019-05-13T11:52:25.152Z,19.16
2019-05-13T11:53:32.908Z,19.10
2019-05-13T11:54:31.725Z,19.10
2019-05-13T11:55:33.798Z,19.04
2019-05-13T11:56:35.474Z,19.06
2019-05-13T11:57:38.657Z,19.08
2019-05-13T11:58:43.206Z,19.02
2019-05-13T11:59:46.241Z,19.01
2019-05-13T12:00:53.214Z,18.97
2019-05-13T12:01:55.222Z,19.08
2019-05-13T12:02:57.455Z,19.14
2019-05-13T12:04:02.453Z,19.18
2019-05-13T12:05:08.624Z,19.17
2019-05-13T12:06:12.792Z,19.23
2019-05-13T12:07:14.803Z,19.31
2019-05-13T12:08:17.009Z,19.32
2019-05-13T12:09:21.979Z,19.24
2019-05-13T12:10:22.995Z,19.23
2019-05-13T12:11:24.602Z,19.16
2019-05-13T12:12:30.651Z,19.08
2019-05-13T12:13:32.806Z,19.14
2019-05-13T12:14:48.503Z,19.07
2019-05-13T12:15:48.721Z,19.10
2019-05-13T12:16:46.737Z,19.08
2019-05-13T12:17:49.007Z,19.11
2019-05-13T12:18:52.510Z,19.00
2019-05-13T12:19:55.016Z,19.00
2019-05-13T12:20:57.123Z,18.97
2019-05-13T12:22:01.805Z,19.01
2019-05-13T12:23:03.640Z,18.93
2019-05-13T12:24:10.436Z,18.95
2019-05-13T12:25:13.094Z,19.06
2019-05-13T12:26:13.823Z,19.05
2019-05-13T12:27:16.389Z,19.09
2019-05-13T12:28:18.434Z,19.13
2019-05-13T12:29:20.301Z,19.15
2019-05-13T12:30:22.845Z,19.21
2019-05-13T12:31:25.001Z,19.15
2019-05-13T12:32:27.174Z,19.12
2019-05-13T12:34:40.898Z,19.02
2019-05-13T12:35:40.584Z,18.92
2019-05-13T12:36:43.240Z,18.89
2019-05-13T12:37:45.509Z,18.90
2019-05-13T12:38:47.605Z,18.92
2019-05-13T12:39:53.216Z,18.99
2019-05-13T12:40:54.632Z,19.05
2019-05-13T12:41:57.082Z,19.06
2019-05-13T12:43:01.336Z,19.10
2019-05-13T12:44:03.163Z,19.20
2019-05-13T12:45:10.275Z,19.25
2019-05-13T12:46:12.604Z,19.33
2019-05-13T12:47:14.735Z,19.34
2019-05-13T12:48:16.777Z,19.29
2019-05-13T12:49:21.465Z,19.38
2019-05-13T12:50:23.949Z,19.37
2019-05-13T12:51:26.099Z,19.36
2019-05-13T12:52:28.097Z,19.32
2019-05-13T12:53:32.120Z,19.38
2019-05-13T12:54:34.704Z,19.40
2019-05-13T12:55:36.818Z,19.37
2019-05-13T12:56:39.275Z,19.29
2019-05-13T12:57:41.358Z,19.36
2019-05-13T12:58:43.377Z,19.38
2019-05-13T12:59:46.487Z,19.37
2019-05-13T13:00:49.499Z,19.36
2019-05-13T13:01:52.749Z,19.25
2019-05-13T13:02:55.113Z,19.24
2019-05-13T13:03:57.423Z,19.30
2019-05-13T13:05:13.365Z,19.32
2019-05-13T13:06:25.065Z,19.27
2019-05-13T13:07:08.263Z,19.30
2019-05-13T13:08:20.955Z,19.32
2019-05-13T13:09:14.333Z,19.36
2019-05-13T13:10:18.370Z,19.32
2019-05-13T13:11:22.800Z,19.36
2019-05-13T13:12:34.536Z,19.35
2019-05-13T13:13:54.118Z,19.31
2019-05-13T13:14:39.573Z,19.41
2019-05-13T13:15:48.416Z,19.44
2019-05-13T13:16:47.399Z,19.38
2019-05-13T13:17:53.904Z,19.41
2019-05-13T13:18:54.373Z,19.44
2019-05-13T13:20:06.196Z,19.42
2019-05-13T13:22:08.073Z,19.50
2019-05-13T13:23:12.595Z,19.51
2019-05-13T13:24:14.402Z,19.54
2019-05-13T13:25:17.579Z,19.59
2019-05-13T13:26:21.745Z,19.61
2019-05-13T13:27:47.038Z,19.62
2019-05-13T13:28:29.325Z,19.71
2019-05-13T13:29:34.003Z,19.75
2019-05-13T13:30:36.291Z,19.79
2019-05-13T13:31:38.417Z,19.78
2019-05-13T13:32:45.128Z,19.75
2019-05-13T13:33:46.422Z,19.73
2019-05-13T13:34:54.632Z,19.69
2019-05-13T13:35:59.410Z,19.62
2019-05-13T13:36:58.348Z,19.68
2019-05-13T13:38:04.060Z,19.60
2019-05-13T13:39:06.182Z,19.49
2019-05-13T13:40:08.407Z,19.55
2019-05-13T13:41:11.031Z,19.49
2019-05-13T13:42:14.054Z,19.47
2019-05-13T13:43:16.194Z,19.44
2019-05-13T13:44:17.909Z,19.35
2019-05-13T13:45:22.754Z,19.40
2019-05-13T13:46:36.330Z,19.37
2019-05-13T13:47:32.451Z,19.33
2019-05-13T13:48:34.081Z,19.40
2019-05-13T13:49:43.681Z,19.31
2019-05-13T13:50:46.052Z,19.37
2019-05-13T13:51:48.128Z,19.37
2019-05-13T13:52:52.752Z,19.46
2019-05-13T13:53:56.412Z,19.52
2019-05-13T13:55:03.461Z,19.60
2019-05-13T13:56:02.680Z,19.62
2019-05-13T13:57:04.793Z,19.61
2019-05-13T13:58:06.717Z,19.69
2019-05-13T13:59:08.795Z,19.58
2019-05-13T14:00:31.739Z,19.53
2019-05-13T14:01:19.890Z,19.51
2019-05-13T14:02:23.946Z,19.54
2019-05-13T14:03:23.748Z,19.49
2019-05-13T14:04:25.365Z,19.53
2019-05-13T14:05:27.478Z,19.52
2019-05-13T14:06:33.065Z,19.03
2019-05-13T14:06:52.390Z,19.49
2019-05-13T14:07:22.470Z,19.52
2019-05-13T14:07:38.660Z,19.52
2019-05-13T14:08:41.554Z,19.34
2019-05-13T14:09:43.923Z,19.27
2019-05-13T14:10:47.078Z,19.24
2019-05-13T14:11:51.558Z,19.20
2019-05-13T14:12:53.531Z,19.14
2019-05-13T14:13:55.545Z,19.17